Terminal Aerodrome Forecast
Issued by NWS

Current Version | Previous Version | Graphics & Text | Print | Product List | Glossary On
Versions: 1 2 3 4 5 6 7 8 9 10 11 12 13 14 15 16 17 18 19 20
701
FTUS41 KPBZ 061132
TAFHLG
TAF
KHLG 061132Z 0612/0712 19007KT P6SM BKN060
     FM061400 23009KT P6SM SCT060 BKN150
     FM070100 22004KT P6SM SCT200=

USA.gov is the U.S. government's official web portal to all federal, state and local government web resources and services.